Terminal Aerodrome Forecast
Issued by NWS

Home | Current Version | Previous Version | Text Only | Print | Product List | Glossary On
Versions: 1 2 3 4 5 6 7 8 9 10 11 12 13 14 15 16 17 18 19 20 21 22 23 24 25 26 27 28
000
FTUS41 KALY 021700
TAFPSF
TAF
KPSF 021740Z 0218/0318 26010KT P6SM SCT035 SCT250
     FM030000 24008KT P6SM VCSH BKN040 BKN200
     FM030300 29007KT 3SM SHRA BR BKN015 OVC040
     FM030700 28005KT 2SM BR SCT008 BKN015
     FM031300 30009KT P6SM SCT015 SCT250=

USA.gov is the U.S. government's official web portal to all federal, state and local government web resources and services.